.
WxDataArchive / Data Records for 2006-02-14
2006-02-13 February 2006 2006-02-15

Data Records for Tuesday, 14 February 2006

Time	Temp	Chill	HIndex	Humid	Dewpt	 Wind 	HiWind	WindDir	Rain 	Barom 
-----	----	-----	------	-----	-----	------	------	-------	-----	----- 
00:00	29.5	25.2	29.5	72	21.6	4	9	248	0.00	29.832 
00:05	29.4	25.1	29.4	72	21.5	4	9	248	0.00	29.832 
00:10	29.4	29.4	29.4	72	21.5	3	6	248	0.00	29.832 
00:15	29.3	29.3	29.3	73	21.7	2	5	248	0.00	29.832 
00:20	29.3	29.3	29.3	73	21.7	3	7	248	0.00	29.832 
00:25	29.1	24.7	29.1	73	21.5	4	10	248	0.00	29.832 
00:30	29.3	29.3	29.3	73	21.7	3	7	248	0.00	29.818 
00:35	29.3	29.3	29.3	73	21.7	3	8	248	0.00	29.818 
00:40	29.3	29.3	29.3	73	21.7	3	11	248	0.00	29.818 
00:45	29.3	29.3	29.3	73	21.7	3	7	248	0.00	29.818 
00:50	29.4	25.1	29.4	73	21.8	4	8	248	0.00	29.818 
00:55	29.4	29.4	29.4	73	21.8	3	8	248	0.00	29.818 
01:00	29.4	29.4	29.4	73	21.8	3	9	248	0.00	29.819 
01:05	29.5	29.5	29.5	73	21.9	3	7	248	0.00	29.819 
01:10	29.7	29.7	29.7	73	22.1	3	6	248	0.00	29.819 
01:15	29.8	25.5	29.8	72	21.9	4	12	248	0.00	29.816 
01:20	30.0	30.0	30.0	72	22.1	3	9	248	0.00	29.816 
01:25	30.0	30.0	30.0	72	22.1	3	7	248	0.00	29.816 
01:30	30.0	30.0	30.0	72	22.1	3	6	248	0.00	29.818 
01:35	30.0	30.0	30.0	72	22.1	3	6	248	0.00	29.818 
01:40	30.1	30.1	30.1	72	22.2	3	7	248	0.00	29.818 
01:45	30.1	30.1	30.1	72	22.2	3	7	248	0.00	29.826 
01:50	30.1	30.1	30.1	72	22.2	3	9	248	0.00	29.826 
01:55	30.1	30.1	30.1	72	22.2	3	6	248	0.00	29.826 
02:00	30.0	30.0	30.0	72	22.1	3	6	248	0.00	29.829 
02:05	30.1	30.1	30.1	72	22.2	3	6	248	0.00	29.829 
02:10	30.1	30.1	30.1	72	22.2	3	6	248	0.00	29.829 
02:15	30.1	30.1	30.1	72	22.2	3	6	248	0.00	29.832 
02:20	30.0	30.0	30.0	72	22.1	3	6	248	0.00	29.832 
02:25	30.0	30.0	30.0	73	22.4	3	7	248	0.00	29.832 
02:30	30.0	30.0	30.0	73	22.4	2	5	248	0.00	29.841 
02:35	29.8	29.8	29.8	73	22.2	2	4	248	0.00	29.841 
02:40	29.8	29.8	29.8	73	22.2	3	6	248	0.00	29.841 
02:45	29.8	29.8	29.8	73	22.2	2	6	248	0.00	29.835 
02:50	29.7	29.7	29.7	73	22.1	2	4	248	0.00	29.835 
02:55	29.5	29.5	29.5	73	21.9	2	5	248	0.00	29.835 
03:00	29.5	29.5	29.5	74	22.3	3	7	248	0.00	29.836 
03:05	29.5	29.5	29.5	74	22.3	2	4	248	0.00	29.836 
03:10	29.5	29.5	29.5	74	22.3	2	4	248	0.00	29.836 
03:15	29.4	29.4	29.4	74	22.2	2	4	248	0.00	29.833 
03:20	29.5	29.5	29.5	74	22.3	2	5	248	0.00	29.833 
03:25	29.5	29.5	29.5	74	22.3	2	7	248	0.00	29.833 
03:30	29.5	29.5	29.5	74	22.3	2	7	248	0.00	29.829 
03:35	29.5	29.5	29.5	74	22.3	2	6	248	0.00	29.829 
03:40	29.4	29.4	29.4	74	22.2	2	4	248	0.00	29.829 
03:45	29.5	29.5	29.5	74	22.3	3	7	248	0.00	29.824 
03:50	29.4	29.4	29.4	74	22.2	2	6	248	0.00	29.824 
03:55	29.4	29.4	29.4	74	22.2	2	4	248	0.00	29.824 
04:00	29.4	29.4	29.4	74	22.2	2	6	248	0.00	29.815 
04:05	29.4	29.4	29.4	74	22.2	2	6	248	0.00	29.815 
04:10	29.3	29.3	29.3	75	22.4	2	5	248	0.00	29.815 
04:15	29.3	29.3	29.3	75	22.4	2	5	248	0.00	29.814 
04:20	29.4	29.4	29.4	75	22.5	3	6	248	0.00	29.814 
04:25	29.4	29.4	29.4	74	22.2	3	6	248	0.00	29.814 
04:30	29.4	29.4	29.4	74	22.2	3	6	248	0.00	29.821 
04:35	29.4	29.4	29.4	74	22.2	2	4	248	0.00	29.821 
04:40	29.3	29.3	29.3	75	22.4	3	7	248	0.00	29.821 
04:45	29.3	29.3	29.3	74	22.1	2	5	248	0.00	29.831 
04:50	29.3	29.3	29.3	75	22.4	3	7	248	0.00	29.831 
04:55	29.3	29.3	29.3	74	22.1	2	6	248	0.00	29.831 
05:00	29.3	29.3	29.3	74	22.1	2	7	248	0.00	29.841 
05:05	29.3	29.3	29.3	74	22.1	2	5	248	0.00	29.841 
05:10	29.1	29.1	29.1	75	22.2	2	6	248	0.00	29.841 
05:15	29.1	29.1	29.1	75	22.2	2	6	248	0.00	29.843 
05:20	29.1	29.1	29.1	75	22.2	2	4	248	0.00	29.843 
05:25	29.1	29.1	29.1	75	22.2	1	5	248	0.00	29.843 
05:30	29.1	29.1	29.1	75	22.2	2	4	248	0.00	29.845 
05:35	29.0	29.0	29.0	75	22.1	2	4	248	0.00	29.845 
05:40	29.0	29.0	29.0	75	22.1	1	4	248	0.00	29.845 
05:45	29.0	29.0	29.0	75	22.1	1	3	248	0.00	29.844 
05:50	28.8	28.8	28.8	75	21.9	2	4	248	0.00	29.844 
05:55	28.8	28.8	28.8	76	22.2	2	4	248	0.00	29.844 
06:00	28.7	28.7	28.7	76	22.1	1	5	248	0.00	29.843 
06:05	28.7	28.7	28.7	76	22.1	2	5	248	0.00	29.843 
06:10	28.8	28.8	28.8	76	22.2	2	6	248	0.00	29.843 
06:15	28.8	28.8	28.8	76	22.2	2	6	248	0.00	29.846 
06:20	28.7	28.7	28.7	76	22.1	2	3	248	0.00	29.846 
06:25	28.7	28.7	28.7	76	22.1	2	5	248	0.00	29.846 
06:30	28.5	28.5	28.5	76	21.9	1	5	248	0.00	29.847 
06:35	28.5	28.5	28.5	76	21.9	1	3	248	0.00	29.847 
06:40	28.2	28.2	28.2	77	21.9	1	4	248	0.00	29.847 
06:45	28.1	28.1	28.1	77	21.8	1	3	248	0.00	29.854 
06:50	27.9	27.9	27.9	77	21.6	1	3	248	0.00	29.854 
06:55	27.8	27.8	27.8	78	21.8	1	4	248	0.00	29.854 
07:00	27.8	27.8	27.8	78	21.8	2	5	248	0.00	29.853 
07:05	27.8	27.8	27.8	78	21.8	2	4	248	0.00	29.853 
07:10	27.8	27.8	27.8	78	21.8	2	4	248	0.00	29.853 
07:15	27.8	27.8	27.8	78	21.8	2	4	248	0.00	29.860 
07:20	27.8	27.8	27.8	78	21.8	2	7	248	0.00	29.860 
07:25	27.8	27.8	27.8	78	21.8	2	5	248	0.00	29.860 
07:30	27.8	27.8	27.8	78	21.8	2	4	248	0.00	29.861 
07:35	27.8	27.8	27.8	78	21.8	2	5	248	0.00	29.861 
07:40	27.8	27.8	27.8	78	21.8	3	9	248	0.00	29.861 
07:45	28.1	28.1	28.1	78	22.1	3	7	248	0.00	29.864 
07:50	28.1	28.1	28.1	78	22.1	2	6	248	0.00	29.864 
07:55	28.4	28.4	28.4	78	22.4	3	10	248	0.00	29.864 
08:00	28.5	28.5	28.5	77	22.2	3	9	248	0.00	29.876 
08:05	28.7	28.7	28.7	77	22.4	3	7	248	0.00	29.876 
08:10	28.8	24.4	28.8	77	22.5	4	6	248	0.00	29.876 
08:15	29.0	24.6	29.0	76	22.4	4	9	248	0.00	29.877 
08:20	29.1	29.1	29.1	76	22.5	2	5	248	0.00	29.877 
08:25	29.1	29.1	29.1	76	22.5	2	6	248	0.00	29.877 
08:30	29.3	29.3	29.3	76	22.7	3	10	248	0.00	29.892 
08:35	29.4	29.4	29.4	75	22.5	3	7	248	0.00	29.892 
08:40	29.5	29.5	29.5	75	22.6	3	9	248	0.00	29.892 
08:45	29.7	29.7	29.7	75	22.8	3	5	248	0.00	29.892 
08:50	30.0	30.0	30.0	75	23.1	3	6	248	0.00	29.892 
08:55	30.3	30.3	30.3	74	23.0	3	7	248	0.00	29.892 
09:00	30.7	26.6	30.7	73	23.1	4	10	248	0.00	29.896 
09:05	31.0	31.0	31.0	72	23.1	3	5	248	0.00	29.896 
09:10	31.2	27.2	31.2	72	23.2	4	10	248	0.00	29.896 
09:15	31.5	31.5	31.5	72	23.5	3	10	248	0.00	29.899 
09:20	31.6	26.6	31.6	71	23.3	5	11	248	0.00	29.899 
09:25	31.9	31.9	31.9	71	23.6	3	9	248	0.00	29.899 
09:30	32.2	27.3	32.2	70	23.5	5	14	248	0.00	29.896 
09:35	32.5	27.7	32.5	69	23.5	5	9	248	0.00	29.896 
09:40	32.9	29.1	32.9	69	23.9	4	13	270	0.00	29.896 
09:45	33.2	28.5	33.2	69	24.2	5	11	248	0.00	29.892 
09:50	33.4	29.7	33.4	68	24.0	4	11	248	0.00	29.892 
09:55	34.0	30.4	34.0	68	24.6	4	8	270	0.00	29.892 
10:00	34.3	30.7	34.3	67	24.5	4	12	248	0.00	29.897 
10:05	34.7	31.2	34.7	67	24.9	4	11	270	0.00	29.897 
10:10	34.9	29.7	34.9	66	24.7	6	13	248	0.00	29.897 
10:15	34.9	28.4	34.9	66	24.7	8	14	248	0.00	29.901 
10:20	35.2	30.8	35.2	67	25.4	5	13	248	0.00	29.901 
10:25	35.6	31.3	35.6	66	25.4	5	10	248	0.00	29.901 
10:30	36.2	32.9	36.2	65	25.6	4	11	270	0.01	29.901 
10:35	36.3	32.1	36.3	65	25.7	5	12	248	0.00	29.901 
10:40	36.5	31.6	36.5	64	25.5	6	14	270	0.00	29.901 
10:45	36.9	32.8	36.9	65	26.3	5	10	248	0.00	29.901 
10:50	36.9	31.4	36.9	63	25.5	7	14	270	0.00	29.901 
10:55	37.3	34.2	37.3	63	25.9	4	9	270	0.00	29.901 
11:00	38.0	35.0	38.0	62	26.2	4	12	270	0.00	29.898 
11:05	38.5	35.6	38.5	62	26.6	4	10	248	0.00	29.898 
11:10	38.6	35.7	38.6	61	26.3	4	8	270	0.00	29.898 
11:15	38.9	36.0	38.9	60	26.2	4	13	248	0.00	29.898 
11:20	38.8	33.1	38.8	58	25.3	8	21	270	0.00	29.898 
11:25	38.9	34.4	38.9	59	25.8	6	14	270	0.00	29.898 
11:30	39.2	35.5	39.2	58	25.7	5	10	270	0.00	29.900 
11:35	39.5	35.2	39.5	58	26.0	6	13	270	0.00	29.900 
11:40	39.8	35.5	39.8	57	25.8	6	15	270	0.00	29.900 
11:45	39.5	34.0	39.5	59	26.4	8	15	248	0.00	29.900 
11:50	39.5	34.5	39.5	58	26.0	7	13	270	0.00	29.900 
11:55	39.8	35.5	39.8	58	26.2	6	13	270	0.00	29.900 
12:00	39.9	34.5	39.9	56	25.5	8	14	270	0.00	29.902 
12:05	40.1	35.9	40.1	58	26.5	6	15	248	0.00	29.902 
12:10	40.9	38.4	40.9	56	26.4	4	10	270	0.00	29.902 
12:15	41.1	37.8	41.1	56	26.6	5	12	248	0.00	29.902 
12:20	41.3	37.3	41.3	54	25.9	6	15	248	0.00	29.902 
12:25	41.6	38.4	41.6	55	26.6	5	13	248	0.00	29.902 
12:30	42.1	38.9	42.1	53	26.2	5	12	270	0.00	29.904 
12:35	42.2	39.1	42.2	53	26.3	5	13	270	0.00	29.904 
12:40	42.3	39.2	42.3	56	27.7	5	12	270	0.00	29.904 
12:45	42.3	38.5	42.3	53	26.4	6	16	270	0.00	29.898 
12:50	42.6	39.5	42.6	54	27.1	5	13	270	0.00	29.898 
12:55	42.8	39.1	42.8	53	26.9	6	12	248	0.00	29.898 
13:00	42.9	39.2	42.9	55	27.9	6	14	248	0.00	29.894 
13:05	42.9	39.9	42.9	53	27.0	5	12	248	0.00	29.894 
13:10	43.1	39.5	43.1	54	27.6	6	17	270	0.00	29.894 
13:15	43.3	40.3	43.3	51	26.4	5	14	248	0.00	29.892 
13:20	43.5	40.6	43.5	51	26.6	5	12	270	0.00	29.892 
13:25	43.5	39.9	43.5	51	26.6	6	14	270	0.00	29.892 
13:30	43.8	40.3	43.8	53	27.8	6	16	248	0.00	29.887 
13:35	44.3	40.9	44.3	51	27.3	6	13	248	0.00	29.887 
13:40	44.9	42.2	44.9	49	26.9	5	14	270	0.00	29.887 
13:45	45.1	43.2	45.1	50	27.6	4	11	270	0.00	29.882 
13:50	45.2	43.3	45.2	50	27.7	4	12	270	0.00	29.882 
13:55	45.1	41.8	45.1	48	26.6	6	15	270	0.00	29.882 
14:00	45.1	41.8	45.1	51	28.1	6	13	270	0.00	29.884 
14:05	45.5	42.9	45.5	50	28.0	5	15	270	0.00	29.884 
14:10	45.5	42.3	45.5	50	28.0	6	14	270	0.00	29.884 
14:15	46.0	42.9	46.0	49	27.9	6	14	270	0.00	29.882 
14:20	46.0	42.9	46.0	48	27.4	6	13	248	0.00	29.882 
14:25	46.4	43.4	46.4	50	28.8	6	12	270	0.00	29.882 
14:30	46.8	45.2	46.8	49	28.7	4	11	270	0.00	29.879 
14:35	47.0	44.7	47.0	47	27.8	5	12	248	0.00	29.879 
14:40	46.8	43.9	46.8	48	28.2	6	13	248	0.00	29.879 
14:45	47.1	44.2	47.1	47	27.9	6	14	270	0.00	29.876 
14:50	47.3	45.0	47.3	48	28.6	5	11	270	0.00	29.876 
14:55	47.6	45.4	47.6	49	29.4	5	10	270	0.00	29.876 
15:00	48.0	45.3	48.0	49	29.8	6	16	248	0.00	29.877 
15:05	48.0	45.3	48.0	48	29.3	6	12	248	0.00	29.877 
15:10	48.3	46.2	48.3	48	29.5	5	14	248	0.00	29.877 
15:15	48.8	47.5	48.8	48	30.0	4	11	270	0.00	29.874 
15:20	49.5	49.5	49.5	48	30.6	3	7	270	0.00	29.874 
15:25	50.1	50.1	50.1	46	30.1	4	12	248	0.00	29.874 
15:30	50.2	50.2	50.2	48	31.3	5	13	248	0.00	29.862 
15:35	50.7	50.7	50.7	46	30.7	3	7	248	0.00	29.862 
15:40	51.0	51.0	51.0	48	32.0	3	9	248	0.00	29.862 
15:45	51.1	51.1	51.1	47	31.6	3	9	248	0.00	29.860 
15:50	50.5	50.5	50.5	47	31.0	5	11	248	0.00	29.860 
15:55	50.4	50.4	50.4	48	31.5	4	12	248	0.00	29.860 
16:00	50.2	50.2	50.2	48	31.3	5	11	248	0.00	29.862 
16:05	50.2	50.2	50.2	48	31.3	5	10	248	0.00	29.862 
16:10	50.2	50.2	50.2	53	33.7	2	6	270	0.00	29.862 
16:15	49.6	48.4	49.6	53	33.2	4	11	270	0.00	29.867 
16:20	49.2	47.9	49.2	54	33.3	4	10	248	0.00	29.867 
16:25	49.1	49.1	49.1	53	32.7	3	9	270	0.00	29.867 
16:30	49.2	49.2	49.2	53	32.8	3	11	248	0.00	29.869 
16:35	48.9	48.9	48.9	53	32.5	3	11	22	0.00	29.869 
16:40	48.6	47.3	48.6	52	31.8	4	13	248	0.00	29.869 
16:45	48.5	48.5	48.5	52	31.7	3	7	248	0.00	29.866 
16:50	48.8	47.5	48.8	52	32.0	4	10	248	0.00	29.866 
16:55	48.8	47.5	48.8	52	32.0	4	10	270	0.00	29.866 
17:00	48.5	48.5	48.5	53	32.2	3	11	270	0.00	29.860 
17:05	48.5	48.5	48.5	52	31.7	3	9	248	0.00	29.860 
17:10	48.5	47.1	48.5	51	31.2	4	11	248	0.00	29.860 
17:15	48.3	48.3	48.3	53	32.0	2	5	225	0.00	29.857 
17:20	47.9	47.9	47.9	53	31.6	2	8	248	0.00	29.857 
17:25	47.3	47.3	47.3	57	32.8	2	6	90	0.00	29.857 
17:30	46.5	46.5	46.5	59	33.0	2	7	90	0.00	29.856 
17:35	45.8	45.8	45.8	60	32.7	2	6	45	0.00	29.856 
17:40	45.2	45.2	45.2	61	32.6	1	4	90	0.00	29.856 
17:45	44.8	44.8	44.8	62	32.6	1	4	90	0.00	29.854 
17:50	44.5	44.5	44.5	62	32.3	1	4	90	0.00	29.854 
17:55	44.2	44.2	44.2	63	32.4	2	5	90	0.00	29.854 
18:00	44.1	44.1	44.1	63	32.3	2	4	90	0.00	29.847 
18:05	43.8	43.8	43.8	63	32.0	2	5	112	0.00	29.847 
18:10	43.6	43.6	43.6	64	32.2	2	4	90	0.00	29.847 
18:15	43.3	43.3	43.3	64	32.0	1	3	68	0.00	29.839 
18:20	43.1	43.1	43.1	64	31.8	2	4	90	0.00	29.839 
18:25	43.1	43.1	43.1	64	31.8	1	3	0	0.00	29.839 
18:30	42.9	42.9	42.9	64	31.6	1	3	90	0.00	29.835 
18:35	42.8	42.8	42.8	63	31.1	2	4	90	0.00	29.835 
18:40	42.9	42.9	42.9	62	30.8	2	4	90	0.00	29.835 
18:45	42.8	42.8	42.8	62	30.7	1	4	90	0.00	29.836 
18:50	42.8	42.8	42.8	62	30.7	2	4	112	0.00	29.836 
18:55	42.5	42.5	42.5	63	30.8	1	5	135	0.00	29.836 
19:00	42.3	42.3	42.3	63	30.6	1	3	112	0.00	29.838 
19:05	42.3	42.3	42.3	63	30.6	2	4	90	0.00	29.838 
19:10	42.2	42.2	42.2	64	30.9	1	4	112	0.00	29.838 
19:15	42.1	42.1	42.1	65	31.2	2	5	90	0.00	29.838 
19:20	42.1	42.1	42.1	65	31.2	2	5	112	0.00	29.838 
19:25	41.8	41.8	41.8	66	31.3	1	3	90	0.00	29.838 
19:30	41.6	41.6	41.6	66	31.1	1	4	90	0.00	29.838 
19:35	41.5	41.5	41.5	67	31.4	1	3	90	0.00	29.838 
19:40	41.3	41.3	41.3	67	31.2	1	4	90	0.00	29.838 
19:45	41.2	41.2	41.2	67	31.1	1	2	90	0.00	29.836 
19:50	40.9	40.9	40.9	67	30.8	1	3	90	0.00	29.836 
19:55	40.8	40.8	40.8	68	31.1	1	2	90	0.00	29.836 
20:00	40.6	40.6	40.6	67	30.5	1	4	90	0.00	29.835 
20:05	40.8	40.8	40.8	67	30.7	1	3	45	0.00	29.835 
20:10	40.6	40.6	40.6	67	30.5	1	3	68	0.00	29.835 
20:15	40.8	40.8	40.8	66	30.3	2	6	248	0.00	29.832 
20:20	41.2	41.2	41.2	65	30.3	2	6	248	0.00	29.832 
20:25	41.5	41.5	41.5	64	30.2	2	7	270	0.00	29.832 
20:30	41.8	41.8	41.8	62	29.7	2	6	315	0.00	29.833 
20:35	41.9	41.9	41.9	62	29.8	2	6	225	0.00	29.833 
20:40	41.9	41.9	41.9	62	29.8	2	6	315	0.00	29.833 
20:45	41.8	41.8	41.8	62	29.7	1	6	225	0.00	29.833 
20:50	41.6	41.6	41.6	62	29.6	1	3	248	0.00	29.833 
20:55	41.6	41.6	41.6	62	29.6	1	4	225	0.00	29.833 
21:00	41.6	41.6	41.6	61	29.2	2	5	248	0.00	29.833 
21:05	41.8	41.8	41.8	60	28.9	2	5	248	0.00	29.833 
21:10	42.1	42.1	42.1	59	28.8	3	6	248	0.00	29.833 
21:15	42.2	42.2	42.2	58	28.5	2	6	248	0.00	29.828 
21:20	42.3	42.3	42.3	58	28.6	3	7	248	0.00	29.828 
21:25	42.6	42.6	42.6	57	28.4	3	9	248	0.00	29.828 
21:30	42.6	42.6	42.6	57	28.4	3	10	270	0.00	29.827 
21:35	42.6	42.6	42.6	57	28.4	3	12	248	0.00	29.827 
21:40	42.8	42.8	42.8	57	28.6	3	9	248	0.00	29.827 
21:45	42.9	42.9	42.9	56	28.3	3	9	248	0.00	29.829 
21:50	42.9	42.9	42.9	55	27.9	3	6	225	0.00	29.829 
21:55	43.2	43.2	43.2	55	28.1	3	10	248	0.00	29.829 
22:00	43.2	43.2	43.2	55	28.1	3	7	248	0.00	29.829 
22:05	43.3	41.1	43.3	54	27.8	4	7	248	0.00	29.829 
22:10	43.3	43.3	43.3	54	27.8	3	6	248	0.00	29.829 
22:15	43.3	43.3	43.3	54	27.8	3	9	248	0.00	29.828 
22:20	43.5	43.5	43.5	54	28.0	3	9	248	0.00	29.828 
22:25	43.9	41.8	43.9	53	27.9	4	14	248	0.00	29.828 
22:30	44.1	42.1	44.1	53	28.1	4	13	248	0.00	29.828 
22:35	44.2	41.4	44.2	52	27.7	5	12	248	0.00	29.828 
22:40	44.5	41.8	44.5	51	27.5	5	11	248	0.00	29.828 
22:45	44.6	41.9	44.6	51	27.6	5	14	270	0.00	29.839 
22:50	44.8	42.9	44.8	50	27.3	4	11	248	0.00	29.839 
22:55	44.8	42.1	44.8	50	27.3	5	11	248	0.00	29.839 
23:00	44.9	41.6	44.9	50	27.4	6	15	248	0.00	29.842 
23:05	44.9	42.2	44.9	50	27.4	5	12	248	0.00	29.842 
23:10	44.9	42.2	44.9	50	27.4	5	12	248	0.00	29.842 
23:15	44.9	41.6	44.9	50	27.4	6	13	270	0.00	29.847 
23:20	44.9	41.6	44.9	50	27.4	6	22	270	0.00	29.847 
23:25	44.8	42.1	44.8	50	27.3	5	14	248	0.00	29.847 
23:30	44.6	41.9	44.6	50	27.1	5	10	248	0.00	29.850 
23:35	44.6	41.9	44.6	50	27.1	5	11	270	0.00	29.850 
23:40	44.6	40.7	44.6	50	27.1	7	15	248	0.00	29.850 
23:45	44.6	41.2	44.6	50	27.1	6	14	270	0.00	29.856 
23:50	44.6	41.9	44.6	50	27.1	5	13	248	0.00	29.856 
23:55	44.5	41.1	44.5	50	27.0	6	13	270	0.00	29.856 

CoCoRaHS
IN-AL-39
A2 Web Hosting
Creative Commons License
GoDaddy
Look for:

loaded 2017-12-13 15:34:26 • last modified 2010-11-18 10:43:29
Privacy PolicyDisclaimer
• wx.awcolley.com is powered by PmWiki v.2002016 •
• all content (unless otherwise noted) © 2017 A W Colley